SPSDE EPPO-EPPO
Flight info
| Callsign | SPSDE |
|---|---|
| Flight time | 0h 38m |
| Altitude | 2000 |
| Route | EPPOI EPPOJ EPPOX 5218N01624E EPPGG EPPG EPPGN EPPGO 5230N01611E EPPOX EPPOJ EPPOI |
| Aircraft | P28R/L-SD/C |
Departure
| Time | 2026-04-21 17:54 |
|---|---|
| Airport | Poznań-Ławica Airport (EPPO) |
Arrival
| Time | 2026-04-21 18:33 |
|---|---|
| Airport | Poznań-Ławica Airport (EPPO) |
| Time | Latitude | Longitude | Altitude | Speed | Heading |
|---|---|---|---|---|---|
| 2026-04-21 17:42 | 52.41490 | 16.83838 | 282 ft | 0 kts | 182° |
| 2026-04-21 17:49 | 52.41488 | 16.83838 | 282 ft | 1 kts | 181° |
| 2026-04-21 17:49 | 52.41483 | 16.83855 | 282 ft | 4 kts | 61° |
| 2026-04-21 17:49 | 52.41516 | 16.83891 | 282 ft | 8 kts | 6° |
| 2026-04-21 17:50 | 52.41576 | 16.83905 | 282 ft | 8 kts | 13° |
| 2026-04-21 17:50 | 52.41611 | 16.83957 | 282 ft | 7 kts | 49° |
| 2026-04-21 17:50 | 52.41661 | 16.83997 | 282 ft | 9 kts | 21° |
| 2026-04-21 17:50 | 52.41728 | 16.84039 | 282 ft | 11 kts | 20° |
| 2026-04-21 17:51 | 52.41804 | 16.84075 | 283 ft | 11 kts | 343° |
| 2026-04-21 17:51 | 52.41882 | 16.83840 | 284 ft | 49 kts | 296° |
| 2026-04-21 17:51 | 52.41980 | 16.83284 | 281 ft | 57 kts | 271° |
| 2026-04-21 17:51 | 52.42032 | 16.82987 | 280 ft | 24 kts | 288° |
| 2026-04-21 17:52 | 52.42132 | 16.82410 | 283 ft | 73 kts | 302° |
| 2026-04-21 17:52 | 52.42240 | 16.81919 | 283 ft | 6 kts | 291° |
| 2026-04-21 17:52 | 52.42241 | 16.81916 | 283 ft | 0 kts | 299° |
| 2026-04-21 17:52 | 52.42242 | 16.81913 | 283 ft | 0 kts | 315° |
| 2026-04-21 17:53 | 52.42316 | 16.81613 | 282 ft | 60 kts | 289° |
| 2026-04-21 17:53 | 52.42383 | 16.81081 | 348 ft | 77 kts | 285° |
| 2026-04-21 17:53 | 52.42449 | 16.80226 | 617 ft | 70 kts | 282° |
| 2026-04-21 17:54 | 52.42309 | 16.79409 | 782 ft | 91 kts | 216° |
| 2026-04-21 17:54 | 52.41730 | 16.79532 | 1057 ft | 83 kts | 159° |
| 2026-04-21 17:54 | 52.41177 | 16.79831 | 1329 ft | 84 kts | 148° |
| 2026-04-21 17:54 | 52.40601 | 16.80022 | 1491 ft | 91 kts | 178° |
| 2026-04-21 17:55 | 52.40094 | 16.79465 | 1616 ft | 91 kts | 257° |
| 2026-04-21 17:55 | 52.40096 | 16.78520 | 1739 ft | 89 kts | 287° |
| 2026-04-21 17:55 | 52.40162 | 16.77414 | 1675 ft | 103 kts | 284° |
| 2026-04-21 17:55 | 52.40210 | 16.76272 | 1752 ft | 101 kts | 282° |
| 2026-04-21 17:56 | 52.40260 | 16.75098 | 1750 ft | 102 kts | 288° |
| 2026-04-21 17:56 | 52.40202 | 16.73926 | 1743 ft | 114 kts | 258° |
| 2026-04-21 17:56 | 52.39773 | 16.72839 | 1754 ft | 118 kts | 240° |
| 2026-04-21 17:56 | 52.39335 | 16.71729 | 1794 ft | 114 kts | 244° |
| 2026-04-21 17:57 | 52.38995 | 16.70552 | 1782 ft | 114 kts | 260° |
| 2026-04-21 17:57 | 52.38850 | 16.69265 | 1682 ft | 119 kts | 272° |
| 2026-04-21 17:57 | 52.38800 | 16.67887 | 1599 ft | 121 kts | 274° |
| 2026-04-21 17:57 | 52.38762 | 16.66537 | 1557 ft | 119 kts | 275° |
| 2026-04-21 17:58 | 52.38746 | 16.65191 | 1504 ft | 117 kts | 276° |
| 2026-04-21 17:58 | 52.38761 | 16.63874 | 1481 ft | 115 kts | 279° |
| 2026-04-21 17:58 | 52.38774 | 16.62576 | 1504 ft | 111 kts | 274° |
| 2026-04-21 17:58 | 52.38558 | 16.61407 | 1620 ft | 107 kts | 248° |
| 2026-04-21 17:59 | 52.38145 | 16.60427 | 1737 ft | 101 kts | 237° |
| 2026-04-21 17:59 | 52.37728 | 16.59541 | 1824 ft | 99 kts | 234° |
| 2026-04-21 17:59 | 52.37276 | 16.58682 | 1897 ft | 99 kts | 231° |
| 2026-04-21 17:59 | 52.36808 | 16.57833 | 1970 ft | 100 kts | 231° |
| 2026-04-21 18:00 | 52.36338 | 16.56987 | 2027 ft | 103 kts | 229° |
| 2026-04-21 18:00 | 52.35841 | 16.56131 | 2098 ft | 104 kts | 228° |
| 2026-04-21 18:00 | 52.35332 | 16.55273 | 2089 ft | 110 kts | 232° |
| 2026-04-21 18:00 | 52.34973 | 16.54185 | 2102 ft | 110 kts | 248° |
| 2026-04-21 18:01 | 52.34620 | 16.53083 | 2144 ft | 108 kts | 248° |
| 2026-04-21 18:01 | 52.34264 | 16.51960 | 2158 ft | 108 kts | 251° |
| 2026-04-21 18:01 | 52.34044 | 16.50793 | 2148 ft | 112 kts | 255° |
| 2026-04-21 18:01 | 52.33580 | 16.49727 | 2151 ft | 111 kts | 243° |
| 2026-04-21 18:02 | 52.33285 | 16.48568 | 2163 ft | 110 kts | 253° |
| 2026-04-21 18:02 | 52.33001 | 16.47429 | 2189 ft | 110 kts | 253° |
| 2026-04-21 18:02 | 52.32713 | 16.46269 | 2217 ft | 110 kts | 254° |
| 2026-04-21 18:02 | 52.32405 | 16.44972 | 1992 ft | 128 kts | 255° |
| 2026-04-21 18:03 | 52.32090 | 16.43612 | 1903 ft | 127 kts | 255° |
| 2026-04-21 18:03 | 52.31758 | 16.42284 | 1808 ft | 127 kts | 252° |
| 2026-04-21 18:03 | 52.31370 | 16.40983 | 1709 ft | 127 kts | 244° |
| 2026-04-21 18:03 | 52.30888 | 16.39769 | 1635 ft | 128 kts | 239° |
| 2026-04-21 18:04 | 52.30300 | 16.38672 | 1550 ft | 129 kts | 224° |
| 2026-04-21 18:04 | 52.29511 | 16.38146 | 1663 ft | 115 kts | 191° |
| 2026-04-21 18:04 | 52.28725 | 16.37785 | 1647 ft | 116 kts | 193° |
| 2026-04-21 18:04 | 52.27959 | 16.37438 | 1696 ft | 113 kts | 193° |
| 2026-04-21 18:05 | 52.27200 | 16.37135 | 1743 ft | 110 kts | 191° |
| 2026-04-21 18:05 | 52.26466 | 16.36857 | 1801 ft | 109 kts | 190° |
| 2026-04-21 18:05 | 52.25725 | 16.36578 | 1895 ft | 109 kts | 190° |
| 2026-04-21 18:05 | 52.24982 | 16.36305 | 1980 ft | 111 kts | 191° |
| 2026-04-21 18:06 | 52.24227 | 16.36010 | 2053 ft | 114 kts | 191° |
| 2026-04-21 18:06 | 52.23503 | 16.35399 | 2060 ft | 119 kts | 217° |
| 2026-04-21 18:06 | 52.23071 | 16.34327 | 2020 ft | 116 kts | 256° |
| 2026-04-21 18:06 | 52.22855 | 16.33041 | 1867 ft | 117 kts | 261° |
| 2026-04-21 18:07 | 52.22666 | 16.31753 | 1666 ft | 115 kts | 264° |
| 2026-04-21 18:07 | 52.22539 | 16.30489 | 1430 ft | 111 kts | 271° |
| 2026-04-21 18:07 | 52.22563 | 16.29275 | 1243 ft | 101 kts | 283° |
| 2026-04-21 18:07 | 52.22720 | 16.28232 | 1025 ft | 93 kts | 293° |
| 2026-04-21 18:08 | 52.22918 | 16.27261 | 811 ft | 85 kts | 295° |
| 2026-04-21 18:08 | 52.23097 | 16.26376 | 599 ft | 79 kts | 292° |
| 2026-04-21 18:08 | 52.23248 | 16.25575 | 433 ft | 73 kts | 290° |
| 2026-04-21 18:08 | 52.23385 | 16.24804 | 354 ft | 67 kts | 291° |
| 2026-04-21 18:09 | 52.23499 | 16.24184 | 330 ft | 50 kts | 289° |
| 2026-04-21 18:09 | 52.23609 | 16.23461 | 432 ft | 75 kts | 281° |
| 2026-04-21 18:09 | 52.23673 | 16.22601 | 725 ft | 77 kts | 278° |
| 2026-04-21 18:09 | 52.23628 | 16.21724 | 1024 ft | 80 kts | 276° |
| 2026-04-21 18:10 | 52.23828 | 16.20883 | 1228 ft | 84 kts | 330° |
| 2026-04-21 18:10 | 52.24367 | 16.20907 | 1394 ft | 76 kts | 16° |
| 2026-04-21 18:10 | 52.24861 | 16.21106 | 1546 ft | 76 kts | 12° |
| 2026-04-21 18:10 | 52.25274 | 16.21636 | 1690 ft | 78 kts | 48° |
| 2026-04-21 18:11 | 52.25628 | 16.22295 | 1857 ft | 79 kts | 48° |
| 2026-04-21 18:11 | 52.25956 | 16.22882 | 1867 ft | 89 kts | 39° |
| 2026-04-21 18:11 | 52.26365 | 16.23447 | 1963 ft | 89 kts | 38° |
| 2026-04-21 18:11 | 52.26891 | 16.24112 | 2041 ft | 98 kts | 37° |
| 2026-04-21 18:12 | 52.27436 | 16.24744 | 2124 ft | 97 kts | 31° |
| 2026-04-21 18:12 | 52.28095 | 16.25229 | 2162 ft | 106 kts | 22° |
| 2026-04-21 18:12 | 52.28805 | 16.25622 | 2222 ft | 112 kts | 14° |
| 2026-04-21 18:12 | 52.29618 | 16.25878 | 2143 ft | 124 kts | 11° |
| 2026-04-21 18:13 | 52.30476 | 16.26100 | 2152 ft | 122 kts | 11° |
| 2026-04-21 18:13 | 52.31354 | 16.25776 | 1895 ft | 140 kts | 335° |
| 2026-04-21 18:13 | 52.32142 | 16.24928 | 1926 ft | 132 kts | 330° |
| 2026-04-21 18:13 | 52.32825 | 16.23901 | 1884 ft | 139 kts | 310° |
| 2026-04-21 18:14 | 52.34099 | 16.22006 | 1973 ft | 119 kts | 354° |
| 2026-04-21 18:14 | 52.34920 | 16.21855 | 2035 ft | 120 kts | 359° |
| 2026-04-21 18:14 | 52.35753 | 16.21769 | 2103 ft | 120 kts | 0° |
| 2026-04-21 18:15 | 52.36583 | 16.21714 | 2180 ft | 119 kts | 1° |
| 2026-04-21 18:15 | 52.37414 | 16.21619 | 2232 ft | 121 kts | 0° |
| 2026-04-21 18:15 | 52.38263 | 16.21494 | 2246 ft | 124 kts | 359° |
| 2026-04-21 18:15 | 52.39132 | 16.21363 | 2216 ft | 127 kts | 359° |
| 2026-04-21 18:16 | 52.40022 | 16.21217 | 2139 ft | 131 kts | 359° |
| 2026-04-21 18:16 | 52.40931 | 16.21062 | 2071 ft | 130 kts | 358° |
| 2026-04-21 18:16 | 52.41825 | 16.20908 | 2036 ft | 129 kts | 359° |
| 2026-04-21 18:16 | 52.42716 | 16.20749 | 1980 ft | 129 kts | 359° |
| 2026-04-21 18:17 | 52.43616 | 16.20590 | 1928 ft | 130 kts | 358° |
| 2026-04-21 18:17 | 52.44512 | 16.20428 | 1897 ft | 130 kts | 358° |
| 2026-04-21 18:17 | 52.45401 | 16.20263 | 1850 ft | 131 kts | 358° |
| 2026-04-21 18:17 | 52.46287 | 16.20096 | 1904 ft | 125 kts | 358° |
| 2026-04-21 18:18 | 52.47136 | 16.19926 | 2012 ft | 121 kts | 358° |
| 2026-04-21 18:18 | 52.47980 | 16.19829 | 2011 ft | 122 kts | 8° |
| 2026-04-21 18:18 | 52.48669 | 16.20527 | 2034 ft | 120 kts | 50° |
| 2026-04-21 18:18 | 52.48826 | 16.21874 | 2111 ft | 121 kts | 90° |
| 2026-04-21 18:19 | 52.48676 | 16.23228 | 2211 ft | 123 kts | 95° |
| 2026-04-21 18:19 | 52.48472 | 16.24607 | 2295 ft | 125 kts | 98° |
| 2026-04-21 18:19 | 52.48274 | 16.25995 | 2344 ft | 127 kts | 97° |
| 2026-04-21 18:19 | 52.48106 | 16.27463 | 2252 ft | 134 kts | 95° |
| 2026-04-21 18:20 | 52.47956 | 16.29002 | 2142 ft | 137 kts | 93° |
| 2026-04-21 18:20 | 52.47821 | 16.30579 | 1956 ft | 142 kts | 92° |
| 2026-04-21 18:20 | 52.47686 | 16.32194 | 1801 ft | 141 kts | 94° |
| 2026-04-21 18:20 | 52.47244 | 16.33662 | 1561 ft | 152 kts | 118° |
| 2026-04-21 18:21 | 52.46615 | 16.35062 | 1379 ft | 153 kts | 122° |
| 2026-04-21 18:21 | 52.45974 | 16.36384 | 1408 ft | 143 kts | 123° |
| 2026-04-21 18:21 | 52.45354 | 16.37610 | 1482 ft | 137 kts | 123° |
| 2026-04-21 18:21 | 52.44739 | 16.38806 | 1528 ft | 136 kts | 123° |
| 2026-04-21 18:22 | 52.44118 | 16.40004 | 1588 ft | 137 kts | 123° |
| 2026-04-21 18:22 | 52.43501 | 16.41192 | 1591 ft | 140 kts | 124° |
| 2026-04-21 18:22 | 52.42866 | 16.42429 | 1524 ft | 142 kts | 124° |
| 2026-04-21 18:22 | 52.42227 | 16.43670 | 1499 ft | 143 kts | 124° |
| 2026-04-21 18:23 | 52.41584 | 16.44917 | 1456 ft | 143 kts | 124° |
| 2026-04-21 18:23 | 52.40947 | 16.46165 | 1428 ft | 143 kts | 123° |
| 2026-04-21 18:23 | 52.40315 | 16.47405 | 1472 ft | 139 kts | 123° |
| 2026-04-21 18:23 | 52.39698 | 16.48609 | 1484 ft | 137 kts | 123° |
| 2026-04-21 18:24 | 52.39090 | 16.49786 | 1513 ft | 136 kts | 123° |
| 2026-04-21 18:24 | 52.38478 | 16.50968 | 1522 ft | 137 kts | 123° |
| 2026-04-21 18:24 | 52.37893 | 16.52181 | 1526 ft | 134 kts | 115° |
| 2026-04-21 18:24 | 52.37611 | 16.53616 | 1497 ft | 130 kts | 95° |
| 2026-04-21 18:25 | 52.37532 | 16.55067 | 1506 ft | 128 kts | 86° |
| 2026-04-21 18:25 | 52.37504 | 16.56536 | 1486 ft | 129 kts | 84° |
| 2026-04-21 18:25 | 52.37487 | 16.57986 | 1484 ft | 128 kts | 85° |
| 2026-04-21 18:25 | 52.37475 | 16.59453 | 1456 ft | 129 kts | 84° |
| 2026-04-21 18:26 | 52.37463 | 16.60915 | 1466 ft | 128 kts | 85° |
| 2026-04-21 18:26 | 52.37450 | 16.62371 | 1471 ft | 128 kts | 85° |
| 2026-04-21 18:26 | 52.37437 | 16.63816 | 1507 ft | 126 kts | 85° |
| 2026-04-21 18:26 | 52.37439 | 16.65252 | 1505 ft | 126 kts | 83° |
| 2026-04-21 18:27 | 52.37582 | 16.66657 | 1492 ft | 124 kts | 74° |
| 2026-04-21 18:27 | 52.37766 | 16.68027 | 1529 ft | 123 kts | 72° |
| 2026-04-21 18:27 | 52.38104 | 16.69267 | 1540 ft | 116 kts | 51° |
| 2026-04-21 18:27 | 52.38675 | 16.70167 | 1499 ft | 114 kts | 41° |
| 2026-04-21 18:28 | 52.39241 | 16.71048 | 1500 ft | 112 kts | 45° |
| 2026-04-21 18:28 | 52.39729 | 16.72018 | 1537 ft | 108 kts | 50° |
| 2026-04-21 18:28 | 52.40039 | 16.73157 | 1532 ft | 110 kts | 67° |
| 2026-04-21 18:28 | 52.40239 | 16.74333 | 1471 ft | 102 kts | 70° |
| 2026-04-21 18:29 | 52.40371 | 16.75074 | 1430 ft | 106 kts | 69° |
| 2026-04-21 18:29 | 52.40566 | 16.76262 | 1454 ft | 109 kts | 71° |
| 2026-04-21 18:29 | 52.40719 | 16.77465 | 1544 ft | 107 kts | 72° |
| 2026-04-21 18:29 | 52.40844 | 16.79062 | 1639 ft | 109 kts | 80° |
| 2026-04-21 18:30 | 52.40795 | 16.79905 | 1653 ft | 110 kts | 91° |
| 2026-04-21 18:30 | 52.40651 | 16.81087 | 1595 ft | 101 kts | 96° |
| 2026-04-21 18:30 | 52.40414 | 16.82147 | 1508 ft | 96 kts | 104° |
| 2026-04-21 18:30 | 52.40145 | 16.83160 | 1465 ft | 102 kts | 106° |
| 2026-04-21 18:31 | 52.39846 | 16.84203 | 1461 ft | 101 kts | 111° |
| 2026-04-21 18:31 | 52.39700 | 16.85198 | 1448 ft | 86 kts | 69° |
| 2026-04-21 18:31 | 52.40136 | 16.85834 | 1192 ft | 92 kts | 24° |
| 2026-04-21 18:31 | 52.40778 | 16.86006 | 894 ft | 90 kts | 11° |
| 2026-04-21 18:32 | 52.41305 | 16.85865 | 753 ft | 81 kts | 330° |
| 2026-04-21 18:32 | 52.41624 | 16.85117 | 547 ft | 80 kts | 294° |
| 2026-04-21 18:32 | 52.41790 | 16.84246 | 346 ft | 82 kts | 291° |
| 2026-04-21 18:32 | 52.41942 | 16.83421 | 283 ft | 63 kts | 292° |
| 2026-04-21 18:33 | 52.41997 | 16.82997 | 280 ft | 17 kts | 216° |
| 2026-04-21 18:33 | 52.41892 | 16.82939 | 282 ft | 17 kts | 199° |
| 2026-04-21 18:33 | 52.41752 | 16.82864 | 282 ft | 23 kts | 198° |
| 2026-04-21 18:33 | 52.41653 | 16.82932 | 282 ft | 19 kts | 102° |
| 2026-04-21 18:34 | 52.41617 | 16.83190 | 282 ft | 23 kts | 104° |
| 2026-04-21 18:34 | 52.41581 | 16.83455 | 282 ft | 27 kts | 104° |
| 2026-04-21 18:34 | 52.41558 | 16.83717 | 282 ft | 10 kts | 137° |
| 2026-04-21 18:34 | 52.41514 | 16.83742 | 282 ft | 5 kts | 82° |
| 2026-04-21 18:35 | 52.41526 | 16.83761 | 282 ft | 2 kts | 336° |
| 2026-04-21 18:35 | 52.41527 | 16.83789 | 282 ft | 13 kts | 174° |
| 2026-04-21 18:35 | 52.41520 | 16.83759 | 282 ft | 8 kts | 29° |
| 2026-04-21 18:35 | 52.41522 | 16.83761 | 282 ft | 0 kts | 8° |